Arviat - eastern half: Past 24 Hour Conditions

 

Cape Dorset Airport

02:00 PM EDT 18 April 2014
This table is a summary of hourly weather conditions for the past 24 hours.
Date / Time
(EDT)
Wind(knots) Conditions Visibility(km) Pressure(kPa) Air tempC) Relative humidity(%) Dew pointC) Wind Chill
18 April 2014
14:00 W 14 gust 19 Light Snow 16 101.4 -11 79 -14 -20
13:00 W 22 gust 27 Light Snow 13 101.4 -12 80 -14 -23
12:00 WSW 21 gust 27 Light Snow 6 101.3 -13 79 -16 -25
11:00 W 18 Light Snow 16 101.3 -14 80 -17 -25
10:00 WSW 15 gust 25 Light Snow 15 101.3 -15 80 -18 -26
9:00 W 20 Light Snow 15 101.3 -16 81 -18 -28
8:00 WSW 18 gust 25 Light Snow 8 101.3 -16 82 -19 -28
7:00 WSW 13 gust 21 Light Snow 6 101.3 -17 82 -19 -27
6:00 W 14 gust 19 Sunny 16 101.3 -17 82 -19 -28
5:00 W 17 gust 23 Clear 16 101.3 -17 82 -20 -29
4:00 W 16 Partly Cloudy 16 101.2 -17 83 -19 -29
3:00 W 16 gust 21 Clear 16 101.2 -17 82 -19 -28
2:00 W 17 Clear 16 101.1 -18 80 -20 -30
1:00 W 11 gust 16 Clear 16 101.1 -17 80 -20 -27
0:00 W 8 Clear 16 101.0 -18 83 -20 -26
17 April 2014
23:00 W 10 Clear 16 101.0 -18 83 -20 -27
22:00 W 10 gust 15 Clear 16 101.0 -18 81 -21 -27
21:00 W 13 Clear 16 100.9 -17 81 -20 -28
20:00 WNW 14 Sunny 16 100.8 -16 75 -19 -26
19:00 WNW 10 Sunny 16 100.7 -15 73 -19 -24
18:00 WNW 14 Light Snow 16 100.6 -15 71 -19 -25
17:00 WNW 16 Light Snow 16 100.5 -15 70 -19 -26
16:00 WNW 12 Sunny 16 100.4 -14 69 -19 -24
15:00 WNW 10 Sunny 16 100.4 -14 67 -19 -23
14:00 WNW 10 Mainly Sunny 16 100.3 -14 64 -19 -23
 
Map of Arctic - Eastern Arctic marine weather areas Baker Lake Airport Chesterfield Inlet Airport Coral Harbour Airport Gjoa Haven Airport Kugaaruk Airport Rankin Inlet Airport Shepherd Bay Airport Whale Cove Airport Arctic Bay Brevoort Island Qikiqtarjuaq Airport Cape Dorset Airport Cape Dyer Cape Hooper Clyde Airport Grise Fiord Airport Hall Beach Airport Igloolik Airport Iqaluit Airport Longstaff Bluff Pangnirtung Airport Pond Inlet Airport Repulse Bay Airport Resolute Airport Resolution Island Rowley Island Airport Taloyoak Airport Wager Bay Akulivik Airport Ivujivik Airport Puvirnituq Airport Kangiqsujuaq Airport Kangirsuk Airport Quaqtaq Airport Tasiujaq Airport Cape Kakkiviak Cape Kiglapait Nain Airport Saglek Cape Mercy Kimmirut Airport Aupaluk Airport Salluit Airport Kangiqsualujjuaq Airport Fort Ross
Legend: buoyBuoy land stationLand Station